Time;durP1;ratioP1;P1;durP2;ratioP2;P2;SDS_P1;SDS_P2;PMS_P1;PMS_P2;Temp;Humidity;BMP_temperature;BMP_pressure;BME280_temperature;BME280_humidity;BME280_pressure;Samples;Min_cycle;Max_cycle;Signal;HPM_P1;HPM_P2
2021/12/29 00:01:57;;;;;;;30.27;20.02;;;3.10;99.20;;;;;;4978908;28;20023;-65
2021/12/29 00:04:24;;;;;;;28.70;18.52;;;3.10;99.00;;;;;;4981237;28;20026;-66
2021/12/29 00:06:50;;;;;;;29.58;19.40;;;3.10;99.00;;;;;;4979672;28;20153;-65
2021/12/29 00:09:15;;;;;;;26.60;19.00;;;3.10;99.10;;;;;;4976378;28;20072;-66
2021/12/29 00:11:42;;;;;;;25.77;18.10;;;3.10;99.10;;;;;;4981249;28;20038;-65
2021/12/29 00:14:09;;;;;;;28.45;19.05;;;3.00;99.20;;;;;;4979923;28;20033;-65
2021/12/29 00:16:35;;;;;;;29.02;19.23;;;3.10;99.30;;;;;;4998238;28;20454;-65
2021/12/29 00:19:05;;;;;;;28.80;18.58;;;3.10;99.20;;;;;;4975199;28;20152;-65
2021/12/29 00:21:33;;;;;;;28.70;19.42;;;3.10;99.10;;;;;;4975232;28;20026;-65
2021/12/29 00:24:03;;;;;;;28.55;18.88;;;3.10;99.00;;;;;;4971510;28;20027;-66
2021/12/29 00:26:30;;;;;;;25.67;18.27;;;3.00;99.10;;;;;;4972813;28;20442;-65
2021/12/29 00:29:00;;;;;;;27.98;18.67;;;3.00;99.50;;;;;;4981017;28;20038;-66
2021/12/29 00:31:28;;;;;;;28.30;18.58;;;3.00;99.40;;;;;;4975895;28;20030;-65
2021/12/29 00:33:54;;;;;;;25.83;17.73;;;2.90;99.50;;;;;;4980043;28;20045;-66
2021/12/29 00:36:19;;;;;;;27.25;18.60;;;3.00;99.50;;;;;;4981423;28;20484;-66
2021/12/29 00:38:45;;;;;;;26.85;19.00;;;3.00;99.40;;;;;;4979198;28;20023;-66
2021/12/29 00:41:12;;;;;;;26.30;18.33;;;2.90;99.40;;;;;;4980002;28;20026;-66
2021/12/29 00:43:37;;;;;;;25.70;17.42;;;2.90;99.50;;;;;;4980495;28;20037;-66
2021/12/29 00:46:04;;;;;;;25.58;18.10;;;3.00;99.40;;;;;;4980716;28;20097;-66
2021/12/29 00:48:36;;;;;;;25.08;16.90;;;3.00;99.20;;;;;;4984746;28;20030;-65
2021/12/29 00:51:03;;;;;;;23.88;16.38;;;3.10;99.30;;;;;;4977433;28;20423;-65
2021/12/29 00:53:29;;;;;;;25.58;17.10;;;3.10;99.10;;;;;;4979767;28;20121;-65
2021/12/29 00:55:55;;;;;;;24.88;17.20;;;3.00;99.50;;;;;;4979482;28;20499;-65
2021/12/29 00:58:21;;;;;;;22.90;17.10;;;3.00;99.10;;;;;;4981455;28;20448;-64
2021/12/29 01:00:47;;;;;;;26.33;17.50;;;3.00;99.20;;;;;;4982983;28;20114;-65
2021/12/29 01:03:16;;;;;;;25.63;16.95;;;3.00;99.30;;;;;;4980395;28;20035;-66
2021/12/29 01:05:42;;;;;;;23.42;16.95;;;3.00;99.40;;;;;;4978752;28;20912;-65
2021/12/29 01:08:07;;;;;;;27.10;16.73;;;2.90;99.40;;;;;;4978317;28;20039;-65
2021/12/29 01:10:34;;;;;;;23.25;15.93;;;2.90;99.40;;;;;;4983179;28;20063;-66
2021/12/29 01:13:02;;;;;;;23.42;15.90;;;2.90;99.40;;;;;;4980671;28;20022;-66
2021/12/29 01:15:36;;;;;;;28.20;19.65;;;2.90;99.40;;;;;;4981351;28;20424;-66
2021/12/29 01:18:04;;;;;;;24.50;16.73;;;2.90;99.50;;;;;;4978940;28;20441;-66
2021/12/29 01:20:31;;;;;;;23.92;15.82;;;2.90;99.40;;;;;;4981180;28;20029;-66
2021/12/29 01:22:58;;;;;;;23.95;16.40;;;2.90;99.50;;;;;;4976024;28;20485;-65
2021/12/29 01:25:25;;;;;;;23.23;16.38;;;2.90;99.60;;;;;;4973375;28;20030;-66
2021/12/29 01:27:51;;;;;;;27.52;18.08;;;2.90;99.60;;;;;;4976275;28;20042;-67
2021/12/29 01:30:18;;;;;;;23.17;16.15;;;2.90;99.50;;;;;;4975623;28;20031;-66
2021/12/29 01:32:44;;;;;;;22.33;15.82;;;2.90;99.50;;;;;;4977329;28;20027;-66
2021/12/29 01:35:11;;;;;;;23.77;16.92;;;2.90;99.60;;;;;;4980057;28;20113;-66
2021/12/29 01:37:37;;;;;;;21.73;15.75;;;2.90;99.50;;;;;;4979499;28;20548;-66
2021/12/29 01:40:12;;;;;;;24.15;16.13;;;3.00;99.50;;;;;;4978680;28;20031;-66
2021/12/29 01:42:38;;;;;;;22.55;16.20;;;2.90;99.40;;;;;;4977368;28;20116;-66
2021/12/29 01:45:07;;;;;;;22.42;15.52;;;2.90;99.60;;;;;;4984059;28;20161;-66
2021/12/29 01:47:33;;;;;;;22.27;15.40;;;2.90;99.60;;;;;;4985264;28;21751;-67
2021/12/29 01:50:00;;;;;;;21.15;15.13;;;2.90;99.70;;;;;;4983813;28;20054;-67
2021/12/29 01:52:31;;;;;;;22.25;15.15;;;2.90;99.70;;;;;;4981682;28;20038;-67
2021/12/29 01:54:57;;;;;;;22.93;14.83;;;2.90;99.50;;;;;;4983449;28;20168;-67
2021/12/29 01:57:23;;;;;;;23.35;15.57;;;2.80;99.60;;;;;;4985233;28;20073;-67
2021/12/29 01:59:48;;;;;;;26.45;17.40;;;2.70;99.80;;;;;;4983739;28;20022;-67
2021/12/29 02:02:15;;;;;;;49.92;31.48;;;2.80;99.90;;;;;;4984087;28;20036;-67
2021/12/29 02:04:45;;;;;;;49.35;30.60;;;2.70;99.90;;;;;;4981758;28;20080;-67
2021/12/29 02:07:12;;;;;;;40.17;25.83;;;2.80;99.90;;;;;;4983944;28;20061;-67
2021/12/29 02:09:38;;;;;;;22.95;15.80;;;2.80;99.90;;;;;;4979932;28;20481;-67
2021/12/29 02:12:05;;;;;;;111.68;60.45;;;2.80;99.80;;;;;;4981926;28;20030;-67
2021/12/29 02:14:31;;;;;;;25.92;18.00;;;2.80;99.90;;;;;;4983601;28;20034;-67
2021/12/29 02:17:00;;;;;;;24.50;16.98;;;2.90;99.90;;;;;;4984974;28;20029;-67
2021/12/29 02:19:26;;;;;;;46.30;28.20;;;2.90;99.80;;;;;;4980961;28;20027;-67
2021/12/29 02:22:08;;;;;;;130.82;76.82;;;2.90;99.80;;;;;;4977698;28;20057;-68
2021/12/29 02:24:39;;;;;;;91.10;58.97;;;2.90;99.80;;;;;;4983217;28;20084;-67
2021/12/29 02:27:06;;;;;;;26.23;18.08;;;2.90;99.80;;;;;;4981764;28;20030;-66
2021/12/29 02:29:33;;;;;;;18.88;13.35;;;2.90;99.70;;;;;;5000766;28;21007;-67
2021/12/29 02:31:59;;;;;;;23.15;15.38;;;2.90;99.80;;;;;;4984876;28;20662;-67
2021/12/29 02:34:25;;;;;;;19.98;13.00;;;2.90;99.80;;;;;;4984017;28;20113;-67
2021/12/29 02:36:50;;;;;;;16.00;12.40;;;2.90;99.90;;;;;;4987000;28;20772;-67
2021/12/29 02:39:21;;;;;;;14.95;11.25;;;2.90;99.80;;;;;;4982995;28;20625;-66
2021/12/29 02:41:51;;;;;;;19.37;11.87;;;2.90;99.70;;;;;;4984895;28;20035;-67
2021/12/29 02:44:24;;;;;;;15.65;10.80;;;2.90;99.90;;;;;;4982778;28;20504;-67
2021/12/29 02:46:50;;;;;;;18.52;12.25;;;2.90;99.90;;;;;;4983764;28;20029;-67
2021/12/29 02:49:16;;;;;;;16.58;12.13;;;3.00;99.90;;;;;;4982113;28;20058;-67
2021/12/29 02:51:41;;;;;;;15.65;12.15;;;3.00;99.90;;;;;;4984077;28;20033;-67
2021/12/29 02:54:08;;;;;;;15.30;10.85;;;3.00;99.80;;;;;;4978915;28;20022;-67
2021/12/29 02:56:34;;;;;;;14.80;11.10;;;3.10;99.60;;;;;;4979134;28;20030;-67
2021/12/29 02:59:00;;;;;;;13.90;10.85;;;3.10;99.60;;;;;;4979222;28;20073;-67
2021/12/29 03:01:28;;;;;;;14.38;9.80;;;3.20;99.60;;;;;;4979033;28;20034;-67
2021/12/29 03:03:57;;;;;;;13.90;10.70;;;3.20;99.40;;;;;;4984229;28;20068;-67
2021/12/29 03:06:24;;;;;;;13.93;10.57;;;3.20;99.40;;;;;;4978074;28;20516;-67
2021/12/29 03:08:50;;;;;;;12.98;9.85;;;3.20;99.10;;;;;;4981080;28;20110;-67
2021/12/29 03:11:17;;;;;;;12.35;9.93;;;3.20;99.30;;;;;;4982492;28;20405;-67
2021/12/29 03:13:43;;;;;;;15.38;11.45;;;3.20;99.30;;;;;;4976910;28;20474;-68
2021/12/29 03:16:09;;;;;;;13.55;10.00;;;3.20;99.40;;;;;;4974830;28;20029;-67
2021/12/29 03:18:35;;;;;;;14.63;10.90;;;3.10;99.10;;;;;;4977921;28;20050;-67
2021/12/29 03:21:01;;;;;;;16.00;11.73;;;3.10;99.40;;;;;;4975754;28;20031;-66
2021/12/29 03:23:27;;;;;;;14.10;11.23;;;3.10;99.40;;;;;;4977618;28;20493;-66
2021/12/29 03:25:52;;;;;;;13.50;10.57;;;3.10;99.50;;;;;;4983054;28;20038;-68
2021/12/29 03:28:20;;;;;;;13.88;10.65;;;3.10;99.60;;;;;;4983019;28;20489;-65
2021/12/29 03:30:50;;;;;;;13.35;10.45;;;3.00;99.60;;;;;;4980721;28;20088;-66
2021/12/29 03:33:16;;;;;;;11.82;9.30;;;3.10;99.60;;;;;;4980873;28;20038;-66
2021/12/29 03:35:45;;;;;;;12.20;9.63;;;3.00;99.50;;;;;;4984535;28;20030;-66
2021/12/29 03:38:15;;;;;;;15.73;10.55;;;3.00;99.70;;;;;;4980567;28;20148;-66
2021/12/29 03:40:41;;;;;;;11.18;8.75;;;3.00;99.50;;;;;;4979115;28;20041;-66
2021/12/29 03:43:09;;;;;;;41.53;33.05;;;3.00;99.40;;;;;;4982111;28;20023;-66
2021/12/29 03:45:37;;;;;;;16.67;13.25;;;2.90;99.60;;;;;;4980704;28;20035;-66
2021/12/29 03:48:08;;;;;;;14.20;11.02;;;3.00;99.60;;;;;;4984771;28;20386;-66
2021/12/29 03:50:35;;;;;;;12.70;9.45;;;2.90;99.60;;;;;;4980247;28;20049;-67
2021/12/29 03:53:01;;;;;;;14.30;11.98;;;2.90;99.70;;;;;;4978708;28;20369;-67
2021/12/29 03:55:26;;;;;;;13.82;10.07;;;3.00;99.70;;;;;;4982765;28;20046;-67
2021/12/29 03:57:52;;;;;;;11.70;9.50;;;3.00;99.70;;;;;;4980121;28;20038;-67
2021/12/29 04:00:20;;;;;;;10.55;8.20;;;3.00;99.50;;;;;;4978956;28;20490;-67
2021/12/29 04:02:46;;;;;;;11.90;8.65;;;3.00;99.70;;;;;;4978937;28;20076;-67
2021/12/29 04:05:18;;;;;;;11.18;8.63;;;3.00;99.90;;;;;;4980596;28;20100;-66
2021/12/29 04:07:44;;;;;;;11.65;9.10;;;3.00;99.60;;;;;;4982759;28;20038;-67
2021/12/29 04:10:11;;;;;;;12.48;8.88;;;3.00;99.70;;;;;;4984611;28;20038;-67
2021/12/29 04:12:41;;;;;;;11.43;8.95;;;3.00;99.70;;;;;;4976507;28;20039;-67
2021/12/29 04:15:08;;;;;;;11.25;8.75;;;3.00;99.70;;;;;;4974474;28;20121;-67
2021/12/29 04:17:38;;;;;;;10.90;9.07;;;3.00;99.70;;;;;;4974713;28;20488;-67
2021/12/29 04:22:54;;;;;;;13.27;10.02;;;3.00;99.60;;;;;;4974299;28;20041;-67
2021/12/29 04:25:24;;;;;;;12.88;9.43;;;3.00;99.60;;;;;;4973281;28;20481;-67
2021/12/29 04:27:57;;;;;;;13.85;10.13;;;3.00;99.60;;;;;;4972407;28;20023;-67
2021/12/29 04:30:25;;;;;;;14.40;9.60;;;3.00;99.60;;;;;;4974662;28;20193;-67
2021/12/29 04:32:52;;;;;;;16.63;10.32;;;3.00;99.50;;;;;;4980603;28;20031;-67
2021/12/29 04:35:23;;;;;;;14.23;9.68;;;3.00;99.60;;;;;;4982309;28;20476;-67
2021/12/29 04:37:51;;;;;;;15.00;9.68;;;3.00;99.60;;;;;;4984148;28;20481;-67
2021/12/29 04:40:17;;;;;;;11.73;8.63;;;3.00;99.60;;;;;;4980603;28;20034;-66
2021/12/29 04:42:43;;;;;;;14.00;9.98;;;3.00;99.50;;;;;;4977894;28;20042;-67
2021/12/29 04:45:10;;;;;;;14.80;9.88;;;3.00;99.60;;;;;;4976692;28;20038;-66
2021/12/29 04:47:40;;;;;;;12.63;9.35;;;3.00;99.70;;;;;;4976837;28;20039;-67
2021/12/29 04:50:17;;;;;;;13.82;9.40;;;3.00;99.70;;;;;;4984719;28;20069;-67
2021/12/29 04:52:43;;;;;;;14.93;10.23;;;2.90;99.60;;;;;;4980129;28;20381;-67
2021/12/29 04:55:09;;;;;;;13.38;9.43;;;2.90;99.80;;;;;;4980060;28;20037;-67
2021/12/29 04:57:35;;;;;;;14.60;9.23;;;2.90;99.90;;;;;;4980033;28;20088;-67
2021/12/29 05:00:00;;;;;;;13.90;9.73;;;2.90;99.90;;;;;;4981063;28;20041;-67
2021/12/29 05:02:26;;;;;;;14.07;10.23;;;2.90;99.90;;;;;;4976414;28;20034;-67
2021/12/29 05:04:59;;;;;;;13.32;9.93;;;2.90;99.90;;;;;;4974363;28;20031;-67
2021/12/29 05:10:09;;;;;;;14.43;9.60;;;2.90;99.90;;;;;;4979871;28;20042;-65
2021/12/29 05:12:35;;;;;;;14.02;9.70;;;2.90;99.90;;;;;;4977246;28;20039;-66
2021/12/29 05:15:00;;;;;;;12.77;8.63;;;3.00;99.90;;;;;;4978358;28;20034;-66
2021/12/29 05:17:26;;;;;;;18.38;10.00;;;3.00;99.90;;;;;;4982256;28;20034;-66
2021/12/29 05:19:52;;;;;;;15.02;10.50;;;3.00;99.80;;;;;;4980319;28;20034;-66
2021/12/29 05:22:17;;;;;;;13.98;9.40;;;3.00;99.90;;;;;;4978448;28;20026;-66
2021/12/29 05:24:43;;;;;;;16.65;10.90;;;3.00;99.90;;;;;;4977644;28;20062;-66
2021/12/29 05:27:09;;;;;;;18.83;11.18;;;3.00;99.90;;;;;;4978861;28;20486;-66
2021/12/29 05:29:35;;;;;;;17.02;10.93;;;3.00;99.90;;;;;;4978875;28;20056;-66
2021/12/29 05:32:00;;;;;;;21.08;11.65;;;3.10;99.80;;;;;;4978903;28;20027;-66
2021/12/29 05:34:26;;;;;;;19.85;11.10;;;3.00;99.80;;;;;;4975344;28;20038;-66
2021/12/29 05:36:52;;;;;;;18.73;10.63;;;3.00;99.90;;;;;;4981109;28;20086;-66
2021/12/29 05:39:17;;;;;;;20.60;10.55;;;3.00;99.90;;;;;;4980741;28;20494;-66
2021/12/29 05:41:43;;;;;;;22.48;11.20;;;3.10;99.90;;;;;;4977714;28;20065;-66
2021/12/29 05:44:09;;;;;;;17.80;10.82;;;3.00;99.90;;;;;;4982649;28;20022;-66
2021/12/29 05:46:34;;;;;;;20.40;11.00;;;3.10;99.90;;;;;;4979526;28;20145;-66
2021/12/29 05:49:00;;;;;;;19.67;10.88;;;3.10;99.80;;;;;;4984786;28;20058;-66
2021/12/29 05:51:26;;;;;;;20.52;10.13;;;3.10;99.80;;;;;;4980633;28;20496;-66
2021/12/29 05:53:52;;;;;;;21.25;11.15;;;3.10;99.90;;;;;;4979716;28;20515;-67
2021/12/29 05:56:17;;;;;;;19.48;10.10;;;3.10;99.90;;;;;;4982016;28;20030;-67
2021/12/29 05:58:43;;;;;;;19.73;11.05;;;3.10;99.90;;;;;;4982299;28;20045;-67
2021/12/29 06:01:09;;;;;;;18.83;10.55;;;3.10;99.90;;;;;;4981955;28;20030;-67
2021/12/29 06:03:37;;;;;;;21.45;11.35;;;3.10;99.90;;;;;;4982551;28;20604;-67
2021/12/29 06:06:03;;;;;;;18.42;11.38;;;3.10;99.90;;;;;;4979042;28;20060;-67
2021/12/29 06:08:29;;;;;;;23.30;11.88;;;3.00;99.80;;;;;;4979832;28;20039;-67
2021/12/29 06:10:54;;;;;;;26.27;12.45;;;3.00;99.80;;;;;;4980013;28;20084;-67
2021/12/29 06:13:20;;;;;;;24.00;11.40;;;3.00;99.90;;;;;;4976648;28;20419;-67
2021/12/29 06:15:46;;;;;;;26.75;12.23;;;3.00;99.90;;;;;;4982850;28;20038;-67
2021/12/29 06:18:12;;;;;;;24.58;12.60;;;3.00;99.90;;;;;;4982335;28;20096;-67
2021/12/29 06:20:38;;;;;;;22.70;13.23;;;3.10;99.90;;;;;;4985979;28;20018;-66
2021/12/29 06:23:06;;;;;;;22.30;13.45;;;3.00;99.90;;;;;;4976619;28;20045;-67
2021/12/29 06:25:33;;;;;;;21.40;11.85;;;3.00;99.90;;;;;;4977954;28;20605;-66
2021/12/29 06:27:59;;;;;;;26.00;13.05;;;3.00;99.90;;;;;;4976501;28;20073;-67
2021/12/29 06:30:24;;;;;;;23.08;11.95;;;3.00;99.90;;;;;;4976528;28;20105;-67
2021/12/29 06:32:50;;;;;;;27.35;13.70;;;3.00;99.90;;;;;;4985161;28;20034;-67
2021/12/29 06:35:16;;;;;;;22.90;12.98;;;3.00;99.90;;;;;;4984874;28;20043;-67
2021/12/29 06:37:43;;;;;;;22.35;12.80;;;3.00;99.90;;;;;;4984171;28;20381;-67
2021/12/29 06:40:11;;;;;;;21.15;11.52;;;3.00;99.90;;;;;;5000700;28;20480;-67
2021/12/29 06:42:37;;;;;;;20.30;11.88;;;3.00;99.90;;;;;;4984810;28;20023;-67
2021/12/29 06:45:04;;;;;;;25.73;12.55;;;3.10;99.90;;;;;;4985115;28;20464;-66
2021/12/29 06:47:29;;;;;;;25.25;12.98;;;3.10;99.90;;;;;;4984896;28;20420;-66
2021/12/29 06:49:55;;;;;;;23.05;13.07;;;3.10;99.90;;;;;;4983347;28;20046;-66
2021/12/29 06:52:22;;;;;;;21.90;12.35;;;3.10;99.90;;;;;;4979082;28;21061;-66
2021/12/29 06:54:47;;;;;;;21.80;13.05;;;3.10;99.90;;;;;;4974223;28;20039;-66
2021/12/29 06:57:14;;;;;;;24.95;12.45;;;3.10;99.90;;;;;;4974794;28;20449;-66
2021/12/29 06:59:39;;;;;;;22.75;12.80;;;3.10;99.90;;;;;;4976750;28;20045;-66
2021/12/29 07:02:05;;;;;;;21.88;11.57;;;3.00;99.90;;;;;;4976601;28;20023;-66
2021/12/29 07:04:31;;;;;;;18.55;11.35;;;3.10;99.90;;;;;;4977078;28;20041;-66
2021/12/29 07:06:58;;;;;;;18.75;12.07;;;3.00;99.90;;;;;;4974816;28;20023;-65
2021/12/29 07:09:24;;;;;;;19.13;12.18;;;3.10;99.90;;;;;;4978756;28;20062;-65
2021/12/29 07:11:50;;;;;;;20.20;12.30;;;3.10;99.90;;;;;;4980918;28;20038;-66
2021/12/29 07:14:16;;;;;;;21.23;12.32;;;3.10;99.90;;;;;;4986929;28;20037;-67
2021/12/29 07:16:44;;;;;;;21.55;12.20;;;3.10;99.90;;;;;;4982479;28;20031;-65
2021/12/29 07:19:10;;;;;;;19.23;12.30;;;3.10;99.90;;;;;;4985115;28;20033;-66
2021/12/29 07:21:36;;;;;;;22.27;12.45;;;3.10;99.90;;;;;;4979538;28;20026;-66
2021/12/29 07:24:01;;;;;;;19.75;12.20;;;3.10;99.90;;;;;;4981284;28;20050;-66
2021/12/29 07:26:27;;;;;;;18.73;11.85;;;3.10;99.90;;;;;;4981277;28;20041;-66
2021/12/29 07:28:53;;;;;;;20.67;13.38;;;3.10;99.90;;;;;;4980231;28;20033;-66
2021/12/29 07:31:20;;;;;;;20.33;12.90;;;3.20;99.90;;;;;;4980922;28;20489;-66
2021/12/29 07:33:46;;;;;;;24.42;13.48;;;3.10;99.90;;;;;;4981135;28;20050;-66
2021/12/29 07:36:12;;;;;;;26.38;14.00;;;3.10;99.90;;;;;;4983677;28;20037;-66
2021/12/29 07:38:39;;;;;;;23.42;13.00;;;3.00;99.90;;;;;;4980839;28;20133;-67
2021/12/29 07:41:05;;;;;;;23.42;13.82;;;3.10;99.90;;;;;;4978980;28;20031;-66
2021/12/29 07:43:31;;;;;;;24.45;13.63;;;3.10;99.90;;;;;;4979255;28;20055;-67
2021/12/29 07:45:56;;;;;;;25.50;13.13;;;3.10;99.90;;;;;;4977543;28;20030;-65
2021/12/29 07:48:28;;;;;;;23.98;13.85;;;3.20;99.90;;;;;;4980240;28;20061;-66
2021/12/29 07:50:54;;;;;;;24.92;13.88;;;3.20;99.90;;;;;;4979060;28;20054;-66
2021/12/29 07:53:20;;;;;;;24.80;13.48;;;3.20;99.90;;;;;;4973087;28;20563;-66
2021/12/29 07:55:46;;;;;;;24.55;13.77;;;3.20;99.90;;;;;;4976629;28;20074;-65
2021/12/29 07:58:12;;;;;;;21.42;13.27;;;3.30;99.80;;;;;;4973851;28;20725;-65
2021/12/29 08:00:38;;;;;;;16.77;11.52;;;3.30;99.80;;;;;;4970086;28;20034;-66
2021/12/29 08:03:04;;;;;;;16.25;10.93;;;3.30;99.90;;;;;;4970616;28;20034;-67
2021/12/29 08:05:29;;;;;;;14.75;10.02;;;3.40;99.60;;;;;;4972461;28;20090;-66
2021/12/29 08:07:55;;;;;;;14.82;10.35;;;3.50;99.50;;;;;;4979448;28;20026;-66
2021/12/29 08:10:21;;;;;;;12.02;9.30;;;3.50;99.50;;;;;;4978584;28;20054;-64
2021/12/29 08:12:47;;;;;;;14.13;9.73;;;3.50;99.60;;;;;;4978349;28;20033;-64
2021/12/29 08:15:13;;;;;;;14.82;10.15;;;3.50;99.20;;;;;;4974753;28;20500;-65
2021/12/29 08:17:40;;;;;;;16.85;11.38;;;3.50;99.20;;;;;;4978815;28;20053;-66
2021/12/29 08:20:07;;;;;;;18.75;10.60;;;3.50;99.30;;;;;;4981046;28;20018;-65
2021/12/29 08:22:33;;;;;;;15.27;10.88;;;3.50;99.50;;;;;;4978679;28;20605;-66
2021/12/29 08:24:59;;;;;;;13.75;10.23;;;3.50;99.40;;;;;;4977539;28;20630;-66
2021/12/29 08:27:25;;;;;;;13.18;9.82;;;3.60;99.40;;;;;;4976203;28;20031;-66
2021/12/29 08:29:50;;;;;;;21.60;15.63;;;3.60;99.30;;;;;;4974339;28;20080;-66
2021/12/29 08:32:16;;;;;;;13.88;9.75;;;3.60;99.20;;;;;;4978094;28;20118;-66
2021/12/29 08:34:42;;;;;;;15.98;9.82;;;3.60;99.10;;;;;;4978490;28;20794;-66
2021/12/29 08:37:08;;;;;;;14.45;10.05;;;3.60;99.20;;;;;;4975272;28;20105;-66
2021/12/29 08:39:34;;;;;;;13.50;9.77;;;3.60;99.20;;;;;;4972799;28;20170;-66
2021/12/29 08:42:00;;;;;;;12.45;8.77;;;3.70;99.30;;;;;;4976316;28;20109;-66
2021/12/29 08:44:25;;;;;;;12.65;8.82;;;3.70;99.10;;;;;;4973820;28;20654;-67
2021/12/29 08:46:51;;;;;;;14.35;9.75;;;3.70;98.90;;;;;;4975764;28;20034;-66
2021/12/29 08:49:17;;;;;;;13.63;9.13;;;3.70;99.00;;;;;;4973467;28;20093;-66
2021/12/29 08:51:42;;;;;;;12.65;8.98;;;3.70;99.10;;;;;;4980587;28;20106;-66
2021/12/29 08:54:08;;;;;;;13.80;9.60;;;3.70;99.10;;;;;;4975864;28;20026;-66
2021/12/29 08:56:35;;;;;;;13.57;8.60;;;3.70;99.00;;;;;;4975298;28;20492;-66
2021/12/29 08:59:01;;;;;;;11.15;8.25;;;3.50;99.00;;;;;;4971774;28;20031;-66
2021/12/29 09:01:27;;;;;;;12.23;8.48;;;3.40;99.20;;;;;;4970546;28;20038;-66
2021/12/29 09:03:53;;;;;;;12.88;9.60;;;3.50;99.10;;;;;;4970046;28;20034;-66
2021/12/29 09:06:20;;;;;;;15.68;10.40;;;3.50;99.20;;;;;;4974996;28;20042;-66
2021/12/29 09:08:46;;;;;;;11.55;8.80;;;3.50;99.10;;;;;;4974121;28;20540;-66
2021/12/29 09:11:13;;;;;;;11.82;8.30;;;3.50;99.10;;;;;;4979433;28;20030;-65
2021/12/29 09:13:40;;;;;;;12.82;8.75;;;3.50;99.00;;;;;;4975766;28;20023;-66
2021/12/29 09:16:06;;;;;;;13.10;9.27;;;3.50;98.90;;;;;;4984687;28;20485;-66
2021/12/29 09:18:34;;;;;;;13.35;9.57;;;3.50;98.90;;;;;;4980012;28;20189;-66
2021/12/29 09:21:07;;;;;;;14.23;9.60;;;3.60;99.00;;;;;;4984527;28;20029;-66
2021/12/29 09:23:36;;;;;;;11.25;8.40;;;3.60;99.00;;;;;;4982261;28;20537;-66
2021/12/29 09:26:04;;;;;;;11.15;8.40;;;3.60;99.20;;;;;;5011927;28;20037;-65
2021/12/29 09:28:30;;;;;;;12.60;8.95;;;3.70;99.30;;;;;;4978120;28;20034;-66
2021/12/29 09:30:56;;;;;;;14.23;9.50;;;3.70;99.20;;;;;;4982647;28;20038;-66
2021/12/29 09:33:21;;;;;;;15.32;9.80;;;3.70;99.20;;;;;;4978458;28;20026;-65
2021/12/29 09:35:51;;;;;;;12.68;10.00;;;3.70;99.40;;;;;;4979604;28;20027;-65
2021/12/29 09:38:18;;;;;;;13.45;9.63;;;3.80;99.40;;;;;;4978397;28;20080;-65
2021/12/29 09:40:46;;;;;;;11.13;8.95;;;3.80;99.30;;;;;;4982466;28;20516;-66
2021/12/29 09:43:12;;;;;;;12.15;8.85;;;3.80;99.10;;;;;;4976153;28;20054;-66
2021/12/29 09:45:40;;;;;;;11.43;8.05;;;3.80;99.10;;;;;;4977709;28;20030;-66
2021/12/29 09:48:05;;;;;;;11.38;8.57;;;3.90;99.00;;;;;;4975010;28;20027;-65
2021/12/29 09:50:32;;;;;;;11.55;8.45;;;3.80;98.90;;;;;;4974844;28;20043;-65
2021/12/29 09:52:58;;;;;;;13.38;8.93;;;3.90;98.90;;;;;;4975383;28;20026;-65
2021/12/29 09:55:24;;;;;;;11.93;8.57;;;3.90;98.90;;;;;;4979753;28;20045;-65
2021/12/29 09:57:54;;;;;;;13.52;9.57;;;3.90;98.90;;;;;;4974776;28;20397;-65
2021/12/29 10:00:30;;;;;;;13.27;9.10;;;3.90;98.90;;;;;;4978535;28;20053;-65
2021/12/29 10:02:58;;;;;;;14.45;10.02;;;3.90;98.90;;;;;;4983053;28;20026;-65
2021/12/29 10:05:27;;;;;;;14.82;9.77;;;3.80;99.20;;;;;;4983765;28;20038;-65
2021/12/29 10:07:58;;;;;;;14.80;9.93;;;3.80;99.20;;;;;;4978328;28;20030;-64
2021/12/29 10:10:24;;;;;;;11.57;8.60;;;3.80;99.30;;;;;;4981076;28;20038;-66
2021/12/29 10:12:49;;;;;;;13.68;9.80;;;3.80;99.20;;;;;;4986742;28;20026;-65
2021/12/29 10:15:15;;;;;;;13.85;9.30;;;3.80;99.20;;;;;;4987302;28;20034;-66
2021/12/29 10:17:41;;;;;;;14.88;10.10;;;3.80;99.20;;;;;;4986685;28;20037;-65
2021/12/29 10:20:09;;;;;;;14.02;9.75;;;3.70;99.30;;;;;;4982165;28;20464;-66
2021/12/29 10:22:35;;;;;;;15.30;10.85;;;3.70;99.20;;;;;;4980191;28;20030;-66
2021/12/29 10:25:10;;;;;;;15.10;10.23;;;3.70;99.40;;;;;;4985799;28;20196;-65
2021/12/29 10:27:36;;;;;;;14.82;10.50;;;3.70;99.30;;;;;;4979009;28;20031;-65
2021/12/29 10:30:30;;;;;;;14.52;10.65;;;3.80;99.40;;;;;;4984564;28;20027;-65
2021/12/29 10:33:07;;;;;;;13.85;9.80;;;3.80;99.50;;;;;;4982580;28;20047;-66
2021/12/29 10:35:33;;;;;;;13.55;9.63;;;3.80;99.50;;;;;;4984949;28;20035;-66
2021/12/29 10:38:20;;;;;;;14.05;10.00;;;3.80;99.50;;;;;;4983568;28;20026;-66
2021/12/29 10:40:46;;;;;;;13.02;9.38;;;3.80;99.60;;;;;;4984022;28;20034;-66
2021/12/29 10:43:13;;;;;;;14.30;10.18;;;3.80;99.50;;;;;;4983978;28;20100;-66
2021/12/29 10:45:41;;;;;;;14.02;10.02;;;3.80;99.50;;;;;;4983989;28;20034;-66
2021/12/29 10:48:22;;;;;;;16.83;10.35;;;3.70;99.60;;;;;;4977914;28;20042;-66
2021/12/29 10:51:03;;;;;;;16.05;10.70;;;3.80;99.80;;;;;;4980254;28;20498;-66
2021/12/29 10:53:30;;;;;;;15.25;10.32;;;3.70;99.70;;;;;;4980759;28;20034;-66
2021/12/29 10:55:57;;;;;;;11.85;8.48;;;3.80;99.80;;;;;;4975674;28;20034;-66
2021/12/29 10:58:26;;;;;;;15.18;10.10;;;3.80;99.60;;;;;;4982988;28;20038;-66
2021/12/29 11:01:12;;;;;;;12.98;8.80;;;3.70;99.60;;;;;;4979362;28;20401;-66
2021/12/29 11:03:52;;;;;;;16.60;11.30;;;3.70;99.70;;;;;;4985964;28;20121;-66
2021/12/29 11:06:21;;;;;;;16.10;11.65;;;3.70;99.80;;;;;;4981688;28;20026;-66
2021/12/29 11:08:49;;;;;;;16.00;10.60;;;3.70;99.90;;;;;;4983672;28;20026;-65
2021/12/29 11:11:39;;;;;;;17.45;10.88;;;3.60;99.80;;;;;;4981191;28;20023;-65
2021/12/29 11:14:10;;;;;;;17.58;11.32;;;3.60;99.90;;;;;;4981427;28;20489;-66
2021/12/29 11:16:37;;;;;;;32.70;26.92;;;3.70;99.90;;;;;;4983126;28;20073;-66
2021/12/29 11:19:04;;;;;;;18.92;12.02;;;3.70;99.90;;;;;;4980643;28;20438;-65
2021/12/29 11:21:33;;;;;;;18.48;11.70;;;3.50;99.90;;;;;;4979705;28;20472;-65
2021/12/29 11:24:23;;;;;;;17.98;11.50;;;3.60;99.90;;;;;;4982689;28;20061;-66
2021/12/29 11:26:50;;;;;;;17.65;12.07;;;3.60;99.80;;;;;;4979867;28;20042;-66
2021/12/29 11:29:21;;;;;;;19.80;12.27;;;3.70;99.90;;;;;;4977222;28;20026;-65
2021/12/29 11:32:03;;;;;;;23.08;14.45;;;3.80;99.80;;;;;;4978544;28;20512;-66
2021/12/29 11:34:30;;;;;;;25.35;16.52;;;3.80;99.70;;;;;;4982689;28;20070;-65
2021/12/29 11:37:07;;;;;;;26.73;17.70;;;3.80;99.60;;;;;;4975983;28;20038;-66
2021/12/29 11:39:37;;;;;;;30.10;19.50;;;3.70;99.90;;;;;;4980298;28;20042;-66
2021/12/29 11:42:03;;;;;;;27.38;17.20;;;3.70;99.90;;;;;;4984949;28;20069;-66
2021/12/29 11:44:29;;;;;;;31.42;19.15;;;3.50;99.90;;;;;;4978029;28;20664;-67
2021/12/29 11:46:55;;;;;;;30.50;19.08;;;3.60;99.90;;;;;;4974319;28;20030;-67
2021/12/29 11:49:21;;;;;;;31.70;19.98;;;3.70;99.90;;;;;;4976831;28;20038;-66
2021/12/29 11:52:06;;;;;;;29.75;20.27;;;3.80;99.90;;;;;;4973736;28;20058;-66
2021/12/29 11:54:58;;;;;;;34.30;21.38;;;3.90;99.90;;;;;;4971595;28;21336;-66
2021/12/29 11:57:30;;;;;;;28.52;18.63;;;3.80;99.90;;;;;;4978527;28;20084;-66
2021/12/29 12:00:08;;;;;;;29.83;18.75;;;3.90;99.90;;;;;;4981675;28;20138;-66
2021/12/29 12:02:35;;;;;;;33.25;20.42;;;3.90;99.90;;;;;;4983493;28;20485;-66
2021/12/29 12:05:12;;;;;;;32.45;20.85;;;4.00;99.90;;;;;;4978609;28;20069;-65
2021/12/29 12:07:38;;;;;;;34.40;20.63;;;4.00;99.90;;;;;;4977543;28;20108;-65
2021/12/29 12:10:09;;;;;;;41.80;25.30;;;4.00;99.90;;;;;;4978985;28;20086;-66
2021/12/29 12:12:46;;;;;;;36.30;22.70;;;4.00;99.90;;;;;;4979450;28;20461;-66
2021/12/29 12:15:14;;;;;;;58.92;39.58;;;4.00;99.90;;;;;;4979133;28;20113;-66
2021/12/29 12:17:41;;;;;;;38.65;23.52;;;4.00;99.90;;;;;;4975710;28;20018;-66
2021/12/29 12:20:07;;;;;;;38.22;25.75;;;4.00;99.90;;;;;;4977828;28;20481;-66
2021/12/29 12:22:45;;;;;;;35.55;23.10;;;4.10;99.90;;;;;;4978959;28;20034;-66
2021/12/29 12:25:11;;;;;;;32.60;21.85;;;4.10;99.90;;;;;;4979626;28;20477;-66
2021/12/29 12:27:43;;;;;;;32.63;20.67;;;4.10;99.90;;;;;;4977017;28;20117;-65
2021/12/29 12:30:14;;;;;;;33.30;20.05;;;4.20;99.90;;;;;;4979133;28;20031;-66
2021/12/29 12:32:43;;;;;;;31.25;19.38;;;4.20;99.90;;;;;;4984040;28;20172;-66
2021/12/29 12:35:09;;;;;;;27.75;18.38;;;4.20;99.90;;;;;;4978164;28;20497;-65
2021/12/29 12:37:45;;;;;;;28.50;18.63;;;4.20;99.90;;;;;;4977308;28;20120;-66
2021/12/29 12:40:22;;;;;;;27.10;18.35;;;4.30;99.90;;;;;;4974249;28;20035;-65
2021/12/29 12:43:03;;;;;;;25.17;17.33;;;4.40;99.80;;;;;;4975672;28;20053;-66
2021/12/29 12:45:33;;;;;;;28.33;18.27;;;4.40;99.70;;;;;;4978528;28;20388;-66
2021/12/29 12:48:08;;;;;;;27.98;17.98;;;4.50;99.80;;;;;;4981113;28;20763;-65